sensor_id;sensor_type;location;lat;lon;timestamp;pressure;altitude;pressure_sealevel;temperature;humidity
34031;BME280;20319;28.466;-16.274;2023-08-31T00:02:11;95507.19;;;18.19;100.00
34031;BME280;20319;28.466;-16.274;2023-08-31T00:04:36;95705.75;;;19.37;100.00
34031;BME280;20319;28.466;-16.274;2023-08-31T00:07:02;95684.31;;;19.35;100.00
34031;BME280;20319;28.466;-16.274;2023-08-31T00:09:28;95368.00;;;17.44;100.00
34031;BME280;20319;28.466;-16.274;2023-08-31T00:11:55;95677.88;;;19.31;100.00
34031;BME280;20319;28.466;-16.274;2023-08-31T00:14:22;95670.38;;;19.28;100.00
34031;BME280;20319;28.466;-16.274;2023-08-31T00:16:48;95655.53;;;19.12;100.00
34031;BME280;20319;28.466;-16.274;2023-08-31T00:19:14;95678.13;;;19.21;100.00
34031;BME280;20319;28.466;-16.274;2023-08-31T00:21:40;95666.97;;;19.23;100.00
34031;BME280;20319;28.466;-16.274;2023-08-31T00:24:06;95524.50;;;18.32;100.00
34031;BME280;20319;28.466;-16.274;2023-08-31T00:26:33;95679.72;;;19.22;100.00
34031;BME280;20319;28.466;-16.274;2023-08-31T00:29:00;95523.19;;;18.29;100.00
34031;BME280;20319;28.466;-16.274;2023-08-31T00:31:25;95654.94;;;19.15;100.00
34031;BME280;20319;28.466;-16.274;2023-08-31T00:33:53;95486.34;;;18.06;100.00
34031;BME280;20319;28.466;-16.274;2023-08-31T00:36:18;95549.69;;;18.46;100.00
34031;BME280;20319;28.466;-16.274;2023-08-31T00:38:44;95667.56;;;19.20;100.00
34031;BME280;20319;28.466;-16.274;2023-08-31T00:41:10;95560.34;;;18.42;100.00
34031;BME280;20319;28.466;-16.274;2023-08-31T00:43:36;95524.19;;;18.33;100.00
34031;BME280;20319;28.466;-16.274;2023-08-31T00:46:01;95695.81;;;19.32;100.00
34031;BME280;20319;28.466;-16.274;2023-08-31T00:48:27;95540.13;;;18.48;100.00
34031;BME280;20319;28.466;-16.274;2023-08-31T00:50:54;95671.19;;;19.29;100.00
34031;BME280;20319;28.466;-16.274;2023-08-31T00:53:20;95676.19;;;19.35;100.00
34031;BME280;20319;28.466;-16.274;2023-08-31T00:55:47;95491.22;;;18.18;100.00
34031;BME280;20319;28.466;-16.274;2023-08-31T00:58:13;95658.13;;;19.17;100.00
34031;BME280;20319;28.466;-16.274;2023-08-31T01:01:10;95672.97;;;19.33;100.00
34031;BME280;20319;28.466;-16.274;2023-08-31T01:06:13;95660.31;;;19.29;100.00
34031;BME280;20319;28.466;-16.274;2023-08-31T01:08:53;95632.03;;;19.07;100.00
34031;BME280;20319;28.466;-16.274;2023-08-31T01:11:31;95636.09;;;19.18;100.00
34031;BME280;20319;28.466;-16.274;2023-08-31T01:14:16;95467.56;;;18.10;100.00
34031;BME280;20319;28.466;-16.274;2023-08-31T01:16:43;95637.47;;;19.07;100.00
34031;BME280;20319;28.466;-16.274;2023-08-31T01:21:57;95637.66;;;19.11;100.00
34031;BME280;20319;28.466;-16.274;2023-08-31T01:24:25;95623.16;;;18.93;100.00
34031;BME280;20319;28.466;-16.274;2023-08-31T01:26:51;95603.19;;;18.89;100.00
34031;BME280;20319;28.466;-16.274;2023-08-31T01:29:18;95600.38;;;18.81;100.00
34031;BME280;20319;28.466;-16.274;2023-08-31T01:31:44;95595.38;;;18.74;100.00
34031;BME280;20319;28.466;-16.274;2023-08-31T01:34:10;95492.16;;;18.13;100.00
34031;BME280;20319;28.466;-16.274;2023-08-31T01:36:39;95624.16;;;18.97;100.00
34031;BME280;20319;28.466;-16.274;2023-08-31T01:39:15;95597.91;;;18.93;100.00
34031;BME280;20319;28.466;-16.274;2023-08-31T01:41:46;95612.38;;;19.02;100.00
34031;BME280;20319;28.466;-16.274;2023-08-31T01:44:16;95627.16;;;19.18;100.00
34031;BME280;20319;28.466;-16.274;2023-08-31T01:46:46;95613.59;;;19.18;100.00
34031;BME280;20319;28.466;-16.274;2023-08-31T01:49:11;95591.19;;;19.12;100.00
34031;BME280;20319;28.466;-16.274;2023-08-31T01:51:38;95595.56;;;19.22;100.00
34031;BME280;20319;28.466;-16.274;2023-08-31T01:54:03;95606.00;;;19.29;100.00
34031;BME280;20319;28.466;-16.274;2023-08-31T01:56:29;95607.34;;;19.40;100.00
34031;BME280;20319;28.466;-16.274;2023-08-31T01:58:54;95619.03;;;19.40;100.00
34031;BME280;20319;28.466;-16.274;2023-08-31T02:01:20;95489.97;;;18.59;100.00
34031;BME280;20319;28.466;-16.274;2023-08-31T02:03:46;95581.63;;;19.15;100.00
34031;BME280;20319;28.466;-16.274;2023-08-31T02:06:11;95585.13;;;19.15;100.00
34031;BME280;20319;28.466;-16.274;2023-08-31T02:08:37;95619.03;;;19.40;100.00
34031;BME280;20319;28.466;-16.274;2023-08-31T02:11:02;95611.97;;;19.39;100.00
34031;BME280;20319;28.466;-16.274;2023-08-31T02:13:30;95610.00;;;19.31;100.00
34031;BME280;20319;28.466;-16.274;2023-08-31T02:15:55;95615.31;;;19.36;100.00
34031;BME280;20319;28.466;-16.274;2023-08-31T02:18:21;95591.63;;;19.28;100.00
34031;BME280;20319;28.466;-16.274;2023-08-31T02:20:47;95602.66;;;19.32;100.00
34031;BME280;20319;28.466;-16.274;2023-08-31T02:23:12;95465.31;;;18.47;100.00
34031;BME280;20319;28.466;-16.274;2023-08-31T02:25:38;95593.34;;;19.24;100.00
34031;BME280;20319;28.466;-16.274;2023-08-31T02:28:04;95618.47;;;19.30;100.00
34031;BME280;20319;28.466;-16.274;2023-08-31T02:30:30;95612.84;;;19.26;100.00
34031;BME280;20319;28.466;-16.274;2023-08-31T02:32:55;95582.41;;;19.15;100.00
34031;BME280;20319;28.466;-16.274;2023-08-31T02:35:21;95614.03;;;19.34;100.00
34031;BME280;20319;28.466;-16.274;2023-08-31T02:37:47;95611.19;;;19.39;100.00
34031;BME280;20319;28.466;-16.274;2023-08-31T02:40:12;95472.63;;;18.47;100.00
34031;BME280;20319;28.466;-16.274;2023-08-31T02:42:38;95539.03;;;18.93;100.00
34031;BME280;20319;28.466;-16.274;2023-08-31T02:45:04;95489.47;;;18.57;100.00
34031;BME280;20319;28.466;-16.274;2023-08-31T02:47:30;95457.09;;;18.39;100.00
34031;BME280;20319;28.466;-16.274;2023-08-31T02:49:55;95497.19;;;18.64;100.00
34031;BME280;20319;28.466;-16.274;2023-08-31T02:52:21;95616.63;;;19.39;100.00
34031;BME280;20319;28.466;-16.274;2023-08-31T02:54:47;95596.75;;;19.30;100.00
34031;BME280;20319;28.466;-16.274;2023-08-31T02:57:12;95607.03;;;19.41;100.00
34031;BME280;20319;28.466;-16.274;2023-08-31T02:59:38;95605.06;;;19.33;100.00
34031;BME280;20319;28.466;-16.274;2023-08-31T03:02:04;95605.25;;;19.37;100.00
34031;BME280;20319;28.466;-16.274;2023-08-31T03:04:29;95602.41;;;19.42;100.00
34031;BME280;20319;28.466;-16.274;2023-08-31T03:06:56;95467.03;;;18.65;100.00
34031;BME280;20319;28.466;-16.274;2023-08-31T03:09:22;95421.44;;;18.45;100.00
34031;BME280;20319;28.466;-16.274;2023-08-31T03:11:48;95602.00;;;19.57;100.00
34031;BME280;20319;28.466;-16.274;2023-08-31T03:14:13;95574.13;;;19.43;100.00
34031;BME280;20319;28.466;-16.274;2023-08-31T03:16:39;95576.72;;;19.48;100.00
34031;BME280;20319;28.466;-16.274;2023-08-31T03:19:05;95426.28;;;18.57;100.00
34031;BME280;20319;28.466;-16.274;2023-08-31T03:21:30;95584.47;;;19.63;100.00
34031;BME280;20319;28.466;-16.274;2023-08-31T03:23:56;95562.63;;;19.46;100.00
34031;BME280;20319;28.466;-16.274;2023-08-31T03:26:22;95459.13;;;18.77;100.00
34031;BME280;20319;28.466;-16.274;2023-08-31T03:28:47;95603.94;;;19.65;100.00
34031;BME280;20319;28.466;-16.274;2023-08-31T03:31:13;95599.16;;;19.62;100.00
34031;BME280;20319;28.466;-16.274;2023-08-31T03:33:38;95591.75;;;19.54;100.00
34031;BME280;20319;28.466;-16.274;2023-08-31T03:36:04;95605.69;;;19.61;100.00
34031;BME280;20319;28.466;-16.274;2023-08-31T03:38:33;95607.91;;;19.59;100.00
34031;BME280;20319;28.466;-16.274;2023-08-31T03:41:03;95607.78;;;19.64;100.00
34031;BME280;20319;28.466;-16.274;2023-08-31T03:43:29;95617.06;;;19.63;100.00
34031;BME280;20319;28.466;-16.274;2023-08-31T03:45:55;95442.13;;;18.63;100.00
34031;BME280;20319;28.466;-16.274;2023-08-31T03:48:23;95569.50;;;19.43;100.00
34031;BME280;20319;28.466;-16.274;2023-08-31T03:50:50;95443.09;;;18.67;100.00
34031;BME280;20319;28.466;-16.274;2023-08-31T03:53:16;95465.66;;;18.76;100.00
34031;BME280;20319;28.466;-16.274;2023-08-31T03:55:42;95609.25;;;19.70;100.00
34031;BME280;20319;28.466;-16.274;2023-08-31T03:58:07;95605.59;;;19.74;100.00
34031;BME280;20319;28.466;-16.274;2023-08-31T04:00:33;95476.59;;;18.93;100.00
34031;BME280;20319;28.466;-16.274;2023-08-31T04:02:58;95601.22;;;19.56;100.00
34031;BME280;20319;28.466;-16.274;2023-08-31T04:05:24;95618.09;;;19.84;100.00
34031;BME280;20319;28.466;-16.274;2023-08-31T04:07:51;95610.25;;;19.82;100.00
34031;BME280;20319;28.466;-16.274;2023-08-31T04:10:16;95461.81;;;18.77;100.00
34031;BME280;20319;28.466;-16.274;2023-08-31T04:12:44;95608.75;;;19.68;100.00
34031;BME280;20319;28.466;-16.274;2023-08-31T04:15:10;95560.03;;;19.32;100.00
34031;BME280;20319;28.466;-16.274;2023-08-31T04:17:36;95468.63;;;18.66;99.92
34031;BME280;20319;28.466;-16.274;2023-08-31T04:20:02;95608.03;;;19.45;99.99
34031;BME280;20319;28.466;-16.274;2023-08-31T04:22:31;95593.16;;;19.21;100.00
34031;BME280;20319;28.466;-16.274;2023-08-31T04:24:56;95598.94;;;19.28;100.00
34031;BME280;20319;28.466;-16.274;2023-08-31T04:27:22;95600.47;;;19.20;100.00
34031;BME280;20319;28.466;-16.274;2023-08-31T04:29:47;95604.25;;;19.10;100.00
34031;BME280;20319;28.466;-16.274;2023-08-31T04:32:13;95598.47;;;19.03;100.00
34031;BME280;20319;28.466;-16.274;2023-08-31T04:34:39;95569.84;;;18.75;100.00
34031;BME280;20319;28.466;-16.274;2023-08-31T04:37:04;95600.47;;;18.89;100.00
34031;BME280;20319;28.466;-16.274;2023-08-31T04:39:30;95321.19;;;17.08;100.00
34031;BME280;20319;28.466;-16.274;2023-08-31T04:41:56;95627.59;;;18.89;100.00
34031;BME280;20319;28.466;-16.274;2023-08-31T04:44:21;95607.59;;;18.85;100.00
34031;BME280;20319;28.466;-16.274;2023-08-31T04:46:47;95629.94;;;18.82;100.00
34031;BME280;20319;28.466;-16.274;2023-08-31T04:49:13;95489.38;;;17.91;100.00
34031;BME280;20319;28.466;-16.274;2023-08-31T04:51:39;95615.38;;;18.78;100.00
34031;BME280;20319;28.466;-16.274;2023-08-31T04:54:07;95476.13;;;17.90;100.00
34031;BME280;20319;28.466;-16.274;2023-08-31T04:56:33;95587.63;;;18.59;100.00
34031;BME280;20319;28.466;-16.274;2023-08-31T04:59:00;95642.31;;;18.75;100.00
34031;BME280;20319;28.466;-16.274;2023-08-31T05:01:25;95417.47;;;17.49;100.00
34031;BME280;20319;28.466;-16.274;2023-08-31T05:03:51;95622.53;;;18.74;100.00
34031;BME280;20319;28.466;-16.274;2023-08-31T05:06:17;95586.00;;;18.58;100.00
34031;BME280;20319;28.466;-16.274;2023-08-31T05:08:42;95613.44;;;18.79;100.00
34031;BME280;20319;28.466;-16.274;2023-08-31T05:11:08;95614.78;;;18.81;100.00
34031;BME280;20319;28.466;-16.274;2023-08-31T05:13:34;95600.19;;;18.77;100.00
34031;BME280;20319;28.466;-16.274;2023-08-31T05:16:00;95633.69;;;18.95;100.00
34031;BME280;20319;28.466;-16.274;2023-08-31T05:18:25;95617.47;;;19.03;100.00
34031;BME280;20319;28.466;-16.274;2023-08-31T05:20:51;95608.09;;;19.09;100.00
34031;BME280;20319;28.466;-16.274;2023-08-31T05:23:17;95616.31;;;19.18;100.00
34031;BME280;20319;28.466;-16.274;2023-08-31T05:25:43;95619.06;;;19.27;100.00
34031;BME280;20319;28.466;-16.274;2023-08-31T05:28:09;95324.91;;;17.47;100.00
34031;BME280;20319;28.466;-16.274;2023-08-31T05:30:35;95474.06;;;18.44;100.00
34031;BME280;20319;28.466;-16.274;2023-08-31T05:33:03;95467.72;;;18.49;100.00
34031;BME280;20319;28.466;-16.274;2023-08-31T05:35:30;95393.06;;;18.07;100.00
34031;BME280;20319;28.466;-16.274;2023-08-31T05:37:55;95596.34;;;19.45;100.00
34031;BME280;20319;28.466;-16.274;2023-08-31T05:40:21;95480.47;;;18.70;100.00
34031;BME280;20319;28.466;-16.274;2023-08-31T05:42:47;95613.03;;;19.60;100.00
34031;BME280;20319;28.466;-16.274;2023-08-31T05:45:13;95623.47;;;19.67;100.00
34031;BME280;20319;28.466;-16.274;2023-08-31T05:47:40;95622.66;;;19.66;100.00
34031;BME280;20319;28.466;-16.274;2023-08-31T05:50:06;95618.03;;;19.67;100.00
34031;BME280;20319;28.466;-16.274;2023-08-31T05:52:32;95605.66;;;19.52;100.00
34031;BME280;20319;28.466;-16.274;2023-08-31T05:54:58;95465.78;;;18.71;100.00
34031;BME280;20319;28.466;-16.274;2023-08-31T05:57:26;95619.00;;;19.71;100.00
34031;BME280;20319;28.466;-16.274;2023-08-31T05:59:53;95501.03;;;18.93;100.00
34031;BME280;20319;28.466;-16.274;2023-08-31T06:02:18;95631.31;;;19.68;100.00
34031;BME280;20319;28.466;-16.274;2023-08-31T06:04:44;95624.28;;;19.67;100.00
34031;BME280;20319;28.466;-16.274;2023-08-31T06:07:10;95635.13;;;19.67;100.00
34031;BME280;20319;28.466;-16.274;2023-08-31T06:09:35;95627.94;;;19.63;100.00
34031;BME280;20319;28.466;-16.274;2023-08-31T06:12:03;95635.78;;;19.64;100.00
34031;BME280;20319;28.466;-16.274;2023-08-31T06:14:29;95636.22;;;19.58;100.00
34031;BME280;20319;28.466;-16.274;2023-08-31T06:16:55;95518.19;;;18.80;100.00
34031;BME280;20319;28.466;-16.274;2023-08-31T06:19:20;95648.22;;;19.65;100.00
34031;BME280;20319;28.466;-16.274;2023-08-31T06:21:46;95506.22;;;18.81;100.00
34031;BME280;20319;28.466;-16.274;2023-08-31T06:24:13;95633.38;;;19.63;100.00
34031;BME280;20319;28.466;-16.274;2023-08-31T06:26:40;95647.28;;;19.70;100.00
34031;BME280;20319;28.466;-16.274;2023-08-31T06:29:05;95642.34;;;19.72;100.00
34031;BME280;20319;28.466;-16.274;2023-08-31T06:31:34;95484.78;;;18.71;100.00
34031;BME280;20319;28.466;-16.274;2023-08-31T06:33:59;95612.72;;;19.53;100.00
34031;BME280;20319;28.466;-16.274;2023-08-31T06:36:25;95468.56;;;18.58;100.00
34031;BME280;20319;28.466;-16.274;2023-08-31T06:38:50;95654.81;;;19.73;100.00
34031;BME280;20319;28.466;-16.274;2023-08-31T06:41:16;95658.97;;;19.70;100.00
34031;BME280;20319;28.466;-16.274;2023-08-31T06:43:41;95666.94;;;19.67;100.00
34031;BME280;20319;28.466;-16.274;2023-08-31T06:46:07;95621.69;;;19.32;100.00
34031;BME280;20319;28.466;-16.274;2023-08-31T06:48:33;95535.16;;;18.64;100.00
34031;BME280;20319;28.466;-16.274;2023-08-31T06:50:58;95682.78;;;19.43;100.00
34031;BME280;20319;28.466;-16.274;2023-08-31T06:53:24;95686.41;;;19.38;100.00
34031;BME280;20319;28.466;-16.274;2023-08-31T06:55:50;95681.59;;;19.35;100.00
34031;BME280;20319;28.466;-16.274;2023-08-31T06:58:15;95683.31;;;19.31;100.00
34031;BME280;20319;28.466;-16.274;2023-08-31T07:00:41;95709.88;;;19.34;100.00
34031;BME280;20319;28.466;-16.274;2023-08-31T07:03:06;95530.25;;;18.30;100.00
34031;BME280;20319;28.466;-16.274;2023-08-31T07:05:41;95662.28;;;19.14;100.00
34031;BME280;20319;28.466;-16.274;2023-08-31T07:08:07;95667.88;;;19.18;100.00
34031;BME280;20319;28.466;-16.274;2023-08-31T07:10:34;95706.34;;;19.34;100.00
34031;BME280;20319;28.466;-16.274;2023-08-31T07:13:02;95693.88;;;19.33;100.00
34031;BME280;20319;28.466;-16.274;2023-08-31T07:15:29;95667.56;;;19.20;100.00
34031;BME280;20319;28.466;-16.274;2023-08-31T07:17:55;95547.47;;;18.48;100.00
34031;BME280;20319;28.466;-16.274;2023-08-31T07:20:21;95685.13;;;19.36;100.00
34031;BME280;20319;28.466;-16.274;2023-08-31T07:22:46;95552.47;;;18.54;100.00
34031;BME280;20319;28.466;-16.274;2023-08-31T07:25:12;95528.41;;;18.39;100.00
34031;BME280;20319;28.466;-16.274;2023-08-31T07:27:38;95696.66;;;19.41;100.00
34031;BME280;20319;28.466;-16.274;2023-08-31T07:30:04;95699.25;;;19.46;100.00
34031;BME280;20319;28.466;-16.274;2023-08-31T07:32:31;95709.50;;;19.49;100.00
34031;BME280;20319;28.466;-16.274;2023-08-31T07:34:57;95690.72;;;19.39;100.00
34031;BME280;20319;28.466;-16.274;2023-08-31T07:37:23;95697.88;;;19.57;100.00
34031;BME280;20319;28.466;-16.274;2023-08-31T07:39:48;95694.53;;;19.60;100.00
34031;BME280;20319;28.466;-16.274;2023-08-31T07:42:14;95546.47;;;18.66;100.00
34031;BME280;20319;28.466;-16.274;2023-08-31T07:44:40;95714.69;;;19.59;100.00
34031;BME280;20319;28.466;-16.274;2023-08-31T07:47:07;95709.56;;;19.58;100.00
34031;BME280;20319;28.466;-16.274;2023-08-31T07:49:33;95700.59;;;19.57;100.00
34031;BME280;20319;28.466;-16.274;2023-08-31T07:51:59;95607.72;;;19.02;100.00
34031;BME280;20319;28.466;-16.274;2023-08-31T07:54:24;95691.75;;;19.52;100.00
34031;BME280;20319;28.466;-16.274;2023-08-31T07:56:51;95704.91;;;19.58;100.00
34031;BME280;20319;28.466;-16.274;2023-08-31T07:59:17;95685.59;;;19.38;100.00
34031;BME280;20319;28.466;-16.274;2023-08-31T08:01:44;95733.88;;;19.63;100.00
34031;BME280;20319;28.466;-16.274;2023-08-31T08:04:11;95715.47;;;19.60;100.00
34031;BME280;20319;28.466;-16.274;2023-08-31T08:06:37;95746.22;;;19.69;100.00
34031;BME280;20319;28.466;-16.274;2023-08-31T08:09:03;95735.06;;;19.70;100.00
34031;BME280;20319;28.466;-16.274;2023-08-31T08:11:30;95741.00;;;19.72;100.00
34031;BME280;20319;28.466;-16.274;2023-08-31T08:13:56;95574.31;;;18.71;100.00
34031;BME280;20319;28.466;-16.274;2023-08-31T08:16:21;95709.56;;;19.58;100.00
34031;BME280;20319;28.466;-16.274;2023-08-31T08:18:47;95738.13;;;19.77;100.00
34031;BME280;20319;28.466;-16.274;2023-08-31T08:21:13;95612.91;;;18.90;99.30
34031;BME280;20319;28.466;-16.274;2023-08-31T08:23:38;95681.81;;;19.39;98.80
34031;BME280;20319;28.466;-16.274;2023-08-31T08:26:04;95748.06;;;19.82;98.92
34031;BME280;20319;28.466;-16.274;2023-08-31T08:28:29;95730.56;;;19.66;98.70
34031;BME280;20319;28.466;-16.274;2023-08-31T08:30:55;95756.88;;;19.87;98.51
34031;BME280;20319;28.466;-16.274;2023-08-31T08:33:21;95754.34;;;19.91;97.97
34031;BME280;20319;28.466;-16.274;2023-08-31T08:35:47;95595.19;;;18.93;97.18
34031;BME280;20319;28.466;-16.274;2023-08-31T08:38:12;95753.72;;;19.94;96.88
34031;BME280;20319;28.466;-16.274;2023-08-31T08:40:38;95745.75;;;19.97;96.44
34031;BME280;20319;28.466;-16.274;2023-08-31T08:43:06;95734.75;;;20.02;96.15
34031;BME280;20319;28.466;-16.274;2023-08-31T08:45:38;95615.44;;;19.31;96.04
34031;BME280;20319;28.466;-16.274;2023-08-31T08:48:07;95577.09;;;19.10;95.27
34031;BME280;20319;28.466;-16.274;2023-08-31T08:50:35;95713.78;;;20.03;95.32
34031;BME280;20319;28.466;-16.274;2023-08-31T08:53:05;95724.72;;;20.11;95.16
34031;BME280;20319;28.466;-16.274;2023-08-31T08:55:32;95578.75;;;19.20;94.84
34031;BME280;20319;28.466;-16.274;2023-08-31T08:57:58;95743.50;;;20.21;94.84
34031;BME280;20319;28.466;-16.274;2023-08-31T09:00:29;95739.84;;;20.26;94.41
34031;BME280;20319;28.466;-16.274;2023-08-31T09:02:55;95613.63;;;19.49;94.00
34031;BME280;20319;28.466;-16.274;2023-08-31T09:05:22;95726.53;;;20.16;93.86
34031;BME280;20319;28.466;-16.274;2023-08-31T09:08:06;95719.91;;;20.08;93.73
34031;BME280;20319;28.466;-16.274;2023-08-31T09:10:40;95470.06;;;18.64;93.06
34031;BME280;20319;28.466;-16.274;2023-08-31T09:13:13;95615.56;;;19.57;92.36
34031;BME280;20319;28.466;-16.274;2023-08-31T09:15:45;95764.44;;;20.51;92.45
34031;BME280;20319;28.466;-16.274;2023-08-31T09:18:32;95766.84;;;20.53;91.72
34031;BME280;20319;28.466;-16.274;2023-08-31T09:21:00;95767.78;;;20.57;91.58
34031;BME280;20319;28.466;-16.274;2023-08-31T09:23:27;95776.31;;;20.64;91.21
34031;BME280;20319;28.466;-16.274;2023-08-31T09:25:54;95491.41;;;18.87;90.84
34031;BME280;20319;28.466;-16.274;2023-08-31T09:28:25;95626.22;;;19.75;91.23
34031;BME280;20319;28.466;-16.274;2023-08-31T09:31:14;95776.81;;;20.75;91.49
34031;BME280;20319;28.466;-16.274;2023-08-31T09:33:49;95793.66;;;20.77;91.51
34031;BME280;20319;28.466;-16.274;2023-08-31T09:36:15;95782.44;;;20.78;91.60
34031;BME280;20319;28.466;-16.274;2023-08-31T09:38:44;95606.41;;;19.75;91.36
34031;BME280;20319;28.466;-16.274;2023-08-31T09:41:10;95788.22;;;20.85;91.29
34031;BME280;20319;28.466;-16.274;2023-08-31T09:43:36;95815.13;;;20.87;91.23
34031;BME280;20319;28.466;-16.274;2023-08-31T09:46:03;95784.66;;;20.76;91.09
34031;BME280;20319;28.466;-16.274;2023-08-31T09:48:29;95670.34;;;20.11;90.62
34031;BME280;20319;28.466;-16.274;2023-08-31T09:50:56;95810.22;;;20.97;90.44
34031;BME280;20319;28.466;-16.274;2023-08-31T09:53:24;95808.00;;;20.99;90.70
34031;BME280;20319;28.466;-16.274;2023-08-31T09:55:51;95787.91;;;20.87;90.51
34031;BME280;20319;28.466;-16.274;2023-08-31T09:58:19;95817.94;;;21.04;90.02
34031;BME280;20319;28.466;-16.274;2023-08-31T10:00:46;95662.63;;;20.05;89.52
34031;BME280;20319;28.466;-16.274;2023-08-31T10:03:12;95770.72;;;20.69;89.50
34031;BME280;20319;28.466;-16.274;2023-08-31T10:05:44;95809.41;;;20.97;89.00
34031;BME280;20319;28.466;-16.274;2023-08-31T10:08:14;95546.44;;;19.32;88.83
34031;BME280;20319;28.466;-16.274;2023-08-31T10:10:40;95675.47;;;20.13;89.21
34031;BME280;20319;28.466;-16.274;2023-08-31T10:13:07;95816.81;;;20.96;88.91
34031;BME280;20319;28.466;-16.274;2023-08-31T10:15:36;95683.84;;;20.25;88.57
34031;BME280;20319;28.466;-16.274;2023-08-31T10:18:04;95814.28;;;21.17;88.43
34031;BME280;20319;28.466;-16.274;2023-08-31T10:20:30;95813.94;;;21.27;88.36
34031;BME280;20319;28.466;-16.274;2023-08-31T10:22:58;95685.03;;;20.49;87.85
34031;BME280;20319;28.466;-16.274;2023-08-31T10:25:24;95814.13;;;21.47;87.37
34031;BME280;20319;28.466;-16.274;2023-08-31T10:27:52;95814.63;;;21.49;86.74
34031;BME280;20319;28.466;-16.274;2023-08-31T10:35:47;95809.16;;;21.66;85.08
34031;BME280;20319;28.466;-16.274;2023-08-31T10:38:15;95805.84;;;21.78;84.48
34031;BME280;20319;28.466;-16.274;2023-08-31T10:40:40;95775.84;;;21.61;83.66
34031;BME280;20319;28.466;-16.274;2023-08-31T10:43:15;95782.44;;;21.77;83.09
34031;BME280;20319;28.466;-16.274;2023-08-31T10:45:44;95692.34;;;21.22;83.24
34031;BME280;20319;28.466;-16.274;2023-08-31T10:48:10;95824.72;;;22.09;82.92
34031;BME280;20319;28.466;-16.274;2023-08-31T10:50:42;95763.97;;;21.91;82.45
34031;BME280;20319;28.466;-16.274;2023-08-31T10:53:10;95817.78;;;22.28;81.69
34031;BME280;20319;28.466;-16.274;2023-08-31T10:55:52;95654.34;;;21.43;80.90
34031;BME280;20319;28.466;-16.274;2023-08-31T10:58:18;95805.84;;;22.41;80.60
34031;BME280;20319;28.466;-16.274;2023-08-31T11:00:51;95803.13;;;22.41;80.06
34031;BME280;20319;28.466;-16.274;2023-08-31T11:03:22;95778.31;;;22.26;79.82
34031;BME280;20319;28.466;-16.274;2023-08-31T11:05:53;95828.00;;;22.40;79.56
34031;BME280;20319;28.466;-16.274;2023-08-31T11:08:23;95803.13;;;22.41;79.50
34031;BME280;20319;28.466;-16.274;2023-08-31T11:10:49;95802.03;;;22.42;81.38
34031;BME280;20319;28.466;-16.274;2023-08-31T11:13:23;95732.81;;;22.09;82.38
34031;BME280;20319;28.466;-16.274;2023-08-31T11:15:49;95739.69;;;22.07;82.79
34031;BME280;20319;28.466;-16.274;2023-08-31T11:18:15;95824.63;;;22.51;82.61
34031;BME280;20319;28.466;-16.274;2023-08-31T11:20:43;95815.00;;;22.45;82.72
34031;BME280;20319;28.466;-16.274;2023-08-31T11:23:09;95834.63;;;22.39;82.74
34031;BME280;20319;28.466;-16.274;2023-08-31T11:25:36;95803.00;;;22.29;84.27
34031;BME280;20319;28.466;-16.274;2023-08-31T11:28:06;95846.44;;;22.51;84.45
34031;BME280;20319;28.466;-16.274;2023-08-31T11:30:36;95853.38;;;22.49;84.45
34031;BME280;20319;28.466;-16.274;2023-08-31T11:33:06;95846.16;;;22.44;85.06
34031;BME280;20319;28.466;-16.274;2023-08-31T11:35:43;95802.84;;;22.26;85.48
34031;BME280;20319;28.466;-16.274;2023-08-31T11:38:10;95834.59;;;22.47;86.35
34031;BME280;20319;28.466;-16.274;2023-08-31T11:40:36;95833.97;;;22.42;84.71
34031;BME280;20319;28.466;-16.274;2023-08-31T11:43:04;95850.84;;;22.52;85.06
34031;BME280;20319;28.466;-16.274;2023-08-31T11:45:30;95826.91;;;22.41;86.53
34031;BME280;20319;28.466;-16.274;2023-08-31T11:47:57;95698.53;;;21.65;88.05
34031;BME280;20319;28.466;-16.274;2023-08-31T11:50:24;95610.63;;;21.22;90.44
34031;BME280;20319;28.466;-16.274;2023-08-31T11:52:50;95845.47;;;22.73;92.56
34031;BME280;20319;28.466;-16.274;2023-08-31T11:55:18;95729.91;;;22.14;93.05
34031;BME280;20319;28.466;-16.274;2023-08-31T11:57:52;95686.97;;;21.85;92.45
34031;BME280;20319;28.466;-16.274;2023-08-31T12:00:22;95836.13;;;22.74;92.94
34031;BME280;20319;28.466;-16.274;2023-08-31T12:03:00;95829.91;;;22.65;93.23
34031;BME280;20319;28.466;-16.274;2023-08-31T12:05:27;95799.78;;;22.44;93.72
34031;BME280;20319;28.466;-16.274;2023-08-31T12:07:54;95791.91;;;22.43;94.13
34031;BME280;20319;28.466;-16.274;2023-08-31T12:10:20;95809.19;;;22.64;94.93
34031;BME280;20319;28.466;-16.274;2023-08-31T12:12:45;95832.44;;;22.70;94.46
34031;BME280;20319;28.466;-16.274;2023-08-31T12:15:11;95821.06;;;22.68;94.58
34031;BME280;20319;28.466;-16.274;2023-08-31T12:17:37;95731.84;;;22.05;94.29
34031;BME280;20319;28.466;-16.274;2023-08-31T12:20:05;95828.75;;;22.74;95.02
34031;BME280;20319;28.466;-16.274;2023-08-31T12:22:32;95811.06;;;22.72;94.65
34031;BME280;20319;28.466;-16.274;2023-08-31T12:24:57;95820.31;;;22.88;93.81
34031;BME280;20319;28.466;-16.274;2023-08-31T12:27:23;95799.69;;;22.70;96.08
34031;BME280;20319;28.466;-16.274;2023-08-31T12:29:49;95823.63;;;23.02;96.30
34031;BME280;20319;28.466;-16.274;2023-08-31T12:32:16;95759.53;;;22.99;95.41
34031;BME280;20319;28.466;-16.274;2023-08-31T12:34:43;95802.28;;;23.54;91.93
34031;BME280;20319;28.466;-16.274;2023-08-31T12:37:09;95814.59;;;23.80;89.74
34031;BME280;20319;28.466;-16.274;2023-08-31T12:39:35;95822.06;;;23.92;87.77
34031;BME280;20319;28.466;-16.274;2023-08-31T12:42:00;95800.44;;;23.99;86.39
34031;BME280;20319;28.466;-16.274;2023-08-31T12:44:26;95819.56;;;24.19;86.11